Eden Prairie, MN (55344)

2:59 AM CST on February 07, 2016 (GMT -0600)
Meadowvale | | Change Station
CLOSE
Current Station
Personal Weather Station
Location: Eden Prairie, MN
Elevation: 863 ft
Nearby Weather Stations
Active Advisory: Winter Weather Advisory

Elev 863 ft 44.85 °N, 93.48 °W | Updated 24 seconds ago

Clear
Clear
28.9 °F
Feels Like 29 °F
N
1.1
Wind Variable Wind from South

Today
High -- | Low -- °F
--% Chance of Precip.
Yesterday
High -- | Low -- °F
Precip. -- in
Pressure 29.68 in
Visibility 10.0 miles
Clouds Clear
Windchill 29 °F
Dew Point 26 °F
Humidity 87%
Rainfall 0.00 in
Snow Depth Not available.
7:26 AM 5:30 PM
Waning Crescent, 2% visible
METAR KFCM 070853Z AUTO 23005KT 10SM CLR M01/M03 A2966 RMK AO2 SLP051 T10061033 58017
Pressure 29.68 in
Visibility 10.0 miles
Clouds Clear
Windchill 29 °F
Dew Point 26 °F
Humidity 87%
Rainfall 0.00 in
Snow Depth Not available.
7:26 AM 5:30 PM
Waning Crescent, 2% visible
METAR KFCM 070853Z AUTO 23005KT 10SM CLR M01/M03 A2966 RMK AO2 SLP051 T10061033 58017

10-Day Weather Forecast

Almanac

Astronomy

Feb. 07, 2016 Rise Set
Actual Time
Civil Twilight
Nautical Twilight
Astronomical Twilight
Moon
Length of Visible Light
Length of Day
Tomorrow will be .
, % of the Moon is Illuminated

Today's Extremes

State Highs State Lows

Community

WunderPhotos

Upload Photos

1,891,171 photos uploaded!

WunderBlog® & News

Nearby

Air Quality

  Air Quality AQ Index Pollutant
Not available.

Snow Depth

Station Depth Elevation

Earthquake Activity

City Distance Mag. Time & Date
Minimum magnitude displayed is 2.5.

Coastal Water Temperatures

Place Temperature

Stations

Nearby Weather Stations

Station Location Temp. Windchill Dew Point Humidity Wind Precip. Elev Updated Type
                   

Watches & Warnings

Winter Weather Advisory
Issued: 2:54 AM CST Feb. 7, 2016 – National Weather Service

... Winter Weather Advisory now in effect from 7 PM this evening
to noon CST Monday...

* expect snow to develop around 7 PM this evening and then
diminish around noon Monday.

* Total snow accumulations of up to 2 inches are expected.

* Winds gusting as high as 45 mph will cause areas of blowing
and drifting snow.

* Plan on slippery Road conditions.

Precautionary/preparedness actions...

A Winter Weather Advisory for snow and blowing snow means periods
of snow will cause primarily travel difficulties. Be prepared for
snow covered roads and limited visibilities... and use caution
while driving. The latest Road conditions for the state you are
calling from can be obtained by calling 5 1 1.


Jrb